createdAt,value
2018-11-06T00:00:24.298Z,101037.88
2018-11-06T00:05:14.653Z,101043.58
2018-11-06T00:09:57.608Z,101034.67
2018-11-06T00:14:40.569Z,101033.41
2018-11-06T00:19:24.662Z,101036.70
2018-11-06T00:24:07.818Z,101036.06
2018-11-06T00:28:54.495Z,101036.00
2018-11-06T00:33:37.339Z,101033.48
2018-11-06T00:38:21.289Z,101025.36
2018-11-06T00:43:04.146Z,101027.65
2018-11-06T00:47:46.994Z,101024.61
2018-11-06T00:52:30.980Z,101019.66
2018-11-06T00:57:13.812Z,101022.09
2018-11-06T01:01:56.796Z,101024.79
2018-11-06T01:06:39.701Z,101017.70
2018-11-06T01:11:22.763Z,101015.02
2018-11-06T01:16:06.011Z,101009.55
2018-11-06T01:20:49.010Z,101017.59
2018-11-06T01:25:31.884Z,101015.80
2018-11-06T01:30:18.299Z,101020.67
2018-11-06T01:35:01.148Z,101018.56
2018-11-06T01:39:45.158Z,101019.50
2018-11-06T01:44:28.045Z,101010.45
2018-11-06T01:49:10.964Z,101017.31
2018-11-06T01:53:53.875Z,101009.41
2018-11-06T01:58:38.008Z,101010.00
2018-11-06T02:03:20.886Z,101010.75
2018-11-06T02:08:05.491Z,101007.36
2018-11-06T02:12:48.409Z,101009.37
2018-11-06T02:17:31.295Z,101001.92
2018-11-06T02:22:15.290Z,101007.98
2018-11-06T02:26:58.223Z,101009.22
2018-11-06T02:31:41.218Z,101008.45
2018-11-06T02:36:24.083Z,101007.63
2018-11-06T02:41:09.025Z,101010.09
2018-11-06T02:45:51.907Z,101006.44
2018-11-06T02:50:34.830Z,101014.59
2018-11-06T02:55:17.687Z,101008.51
2018-11-06T03:00:00.583Z,101014.52
2018-11-06T03:04:43.446Z,101016.95
2018-11-06T03:09:26.408Z,101010.67
2018-11-06T03:14:09.291Z,101014.06
2018-11-06T03:18:54.137Z,101011.92
2018-11-06T03:23:36.990Z,101006.66
2018-11-06T03:28:19.904Z,101016.43
2018-11-06T03:33:02.785Z,101016.95
2018-11-06T03:37:46.734Z,101018.07
2018-11-06T03:42:29.605Z,101023.50
2018-11-06T03:47:12.462Z,101022.12
2018-11-06T03:51:56.443Z,101025.00
2018-11-06T03:56:39.311Z,101029.39
2018-11-06T04:01:22.433Z,101021.98
2018-11-06T04:06:05.392Z,101026.34
2018-11-06T04:10:48.449Z,101024.89
2018-11-06T04:15:31.410Z,101029.28
2018-11-06T04:20:14.475Z,101032.70
2018-11-06T04:24:57.328Z,101033.64
2018-11-06T04:29:41.257Z,101031.05
2018-11-06T04:34:24.143Z,101033.91
2018-11-06T04:39:09.240Z,101035.98
2018-11-06T04:43:53.096Z,101041.63
2018-11-06T04:48:36.130Z,101047.95
2018-11-06T04:53:19.055Z,101054.67
2018-11-06T04:58:02.817Z,101062.28
2018-11-06T05:02:45.698Z,101062.47
2018-11-06T05:07:28.620Z,101066.70
2018-11-06T05:12:11.517Z,101068.91
2018-11-06T05:16:54.397Z,101079.10
2018-11-06T05:21:38.338Z,101080.46
2018-11-06T05:26:21.226Z,101077.96
2018-11-06T05:31:04.402Z,101085.80
2018-11-06T05:35:47.340Z,101089.41
2018-11-06T05:40:41.384Z,101090.67
2018-11-06T05:45:24.514Z,101085.13
2018-11-06T05:50:07.794Z,101090.72
2018-11-06T05:54:50.731Z,101093.52
2018-11-06T05:59:34.794Z,101097.48
2018-11-06T06:04:17.703Z,101102.65
2018-11-06T06:09:02.134Z,101104.23
2018-11-06T06:13:45.402Z,101106.19
2018-11-06T06:18:28.493Z,101107.98
2018-11-06T06:23:11.557Z,101114.09
2018-11-06T06:27:55.023Z,101115.98
2018-11-06T06:32:38.338Z,101112.49
2018-11-06T06:37:21.376Z,101107.66
2018-11-06T06:42:04.944Z,101109.54
2018-11-06T06:46:48.065Z,101096.21
2018-11-06T06:51:32.098Z,101098.33
2018-11-06T06:56:14.966Z,101099.64
2018-11-06T07:00:59.162Z,101090.75
2018-11-06T07:07:49.343Z,101087.80
2018-11-06T07:12:32.734Z,101090.41
2018-11-06T07:17:16.823Z,101093.05
2018-11-06T07:21:59.738Z,101103.62
2018-11-06T07:26:42.663Z,101112.11
2018-11-06T07:31:26.758Z,101111.92
2018-11-06T07:36:09.847Z,101114.39
2018-11-06T07:40:53.140Z,101114.95
2018-11-06T07:45:36.069Z,101110.12
2018-11-06T07:50:23.005Z,101106.56
2018-11-06T07:55:07.451Z,101106.05
2018-11-06T07:59:50.617Z,101104.14
2018-11-06T08:04:33.496Z,101112.46
2018-11-06T08:09:16.413Z,101113.93
2018-11-06T08:13:59.285Z,101109.04
2018-11-06T08:18:43.131Z,101110.92
2018-11-06T08:32:27.328Z,101104.84
2018-11-06T08:37:11.018Z,101103.91
2018-11-06T08:41:53.864Z,101100.41
2018-11-06T08:46:37.091Z,101101.78
2018-11-06T08:51:21.159Z,101100.41
2018-11-06T08:56:04.378Z,101103.29
2018-11-06T09:00:50.985Z,101100.52
2018-11-06T09:05:33.890Z,101100.80
2018-11-06T09:10:17.430Z,101099.29
2018-11-06T09:15:00.287Z,101094.89
2018-11-06T09:19:44.309Z,101097.13
2018-11-06T09:24:27.169Z,101109.81
2018-11-06T09:29:10.118Z,101104.16
2018-11-06T09:33:53.079Z,101105.38
2018-11-06T09:38:37.245Z,101102.85
2018-11-06T09:43:20.158Z,101097.98
2018-11-06T09:48:07.774Z,101092.24
2018-11-06T09:54:20.038Z,101087.17
2018-11-06T09:59:04.187Z,101088.37
2018-11-06T10:03:47.105Z,101083.72
2018-11-06T10:08:30.227Z,101078.10
2018-11-06T10:13:13.135Z,101074.39
2018-11-06T10:17:59.643Z,101078.53
2018-11-06T10:22:42.644Z,101066.33
2018-11-06T10:27:26.580Z,101066.11
2018-11-06T10:32:09.464Z,101072.14
2018-11-06T10:36:57.725Z,101066.25
2018-11-06T10:41:40.929Z,101065.62
2018-11-06T10:46:24.160Z,101059.69
2018-11-06T10:51:10.734Z,101059.42
2018-11-06T10:55:53.626Z,101066.23
2018-11-06T11:00:43.352Z,101064.48
2018-11-06T11:05:27.712Z,101059.19
2018-11-06T11:10:10.762Z,101055.39
2018-11-06T11:14:53.661Z,101048.94
2018-11-06T11:19:40.661Z,101045.84
2018-11-06T11:24:23.528Z,101040.42
2018-11-06T11:29:07.439Z,101042.05
2018-11-06T11:33:50.427Z,101038.66
2018-11-06T11:38:34.351Z,101046.92
2018-11-06T11:43:17.353Z,101041.67
2018-11-06T11:48:00.435Z,101042.03
2018-11-06T11:52:43.513Z,101038.36
2018-11-06T11:57:29.789Z,101042.27
2018-11-06T12:02:12.673Z,101033.82
2018-11-06T12:06:56.843Z,101035.26
2018-11-06T12:11:39.771Z,101037.48
2018-11-06T12:16:27.208Z,101025.31
2018-11-06T12:21:10.090Z,101029.09
2018-11-06T12:25:53.110Z,101032.95
2018-11-06T12:30:36.913Z,101037.48
2018-11-06T12:35:19.814Z,101039.73
2018-11-06T12:40:06.370Z,101034.86
2018-11-06T12:44:49.257Z,101039.11
2018-11-06T12:49:32.228Z,101034.84
2018-11-06T12:54:15.133Z,101043.86
2018-11-06T12:58:59.337Z,101047.61
2018-11-06T13:05:11.610Z,101050.25
2018-11-06T13:09:54.694Z,101056.14
2018-11-06T13:14:37.698Z,101052.80
2018-11-06T13:19:21.659Z,101057.68
2018-11-06T13:24:05.006Z,101061.13
2018-11-06T13:28:49.372Z,101063.89
2018-11-06T13:33:32.242Z,101075.29
2018-11-06T13:38:16.294Z,101072.64
2018-11-06T13:42:59.313Z,101070.97
2018-11-06T13:47:44.367Z,101068.97
2018-11-06T13:52:27.274Z,101064.34
2018-11-06T13:57:11.141Z,101068.06
2018-11-06T14:01:54.098Z,101066.98
2018-11-06T14:06:37.129Z,101065.81
2018-11-06T14:11:19.987Z,101069.27
2018-11-06T14:16:02.896Z,101060.56
2018-11-06T14:20:49.364Z,101061.06
2018-11-06T14:25:32.247Z,101063.70
2018-11-06T14:30:18.151Z,101065.42
2018-11-06T14:35:01.104Z,101062.78
2018-11-06T14:39:45.080Z,101065.34
2018-11-06T14:44:27.952Z,101070.72
2018-11-06T14:49:12.965Z,101067.55
2018-11-06T14:53:55.852Z,101074.36
2018-11-06T14:58:42.775Z,101073.03
2018-11-06T15:03:25.655Z,101079.72
2018-11-06T15:08:09.743Z,101074.25
2018-11-06T15:12:52.619Z,101082.75
2018-11-06T15:17:37.579Z,101093.52
2018-11-06T15:22:20.463Z,101099.31
2018-11-06T15:27:04.399Z,101098.30
2018-11-06T15:31:47.345Z,101103.23
2018-11-06T15:36:34.009Z,101105.25
2018-11-06T15:41:16.995Z,101111.16
2018-11-06T15:46:01.017Z,101109.91
2018-11-06T15:50:43.991Z,101114.75
2018-11-06T15:55:26.935Z,101119.92
2018-11-06T16:00:15.089Z,101124.52
2018-11-06T16:04:58.024Z,101123.58
2018-11-06T16:09:41.120Z,101127.16
2018-11-06T16:14:24.069Z,101131.59
2018-11-06T16:19:07.971Z,101133.72
2018-11-06T16:23:50.906Z,101132.06
2018-11-06T16:28:34.918Z,101137.98
2018-11-06T16:33:17.837Z,101133.14
2018-11-06T16:38:01.953Z,101134.22
2018-11-06T16:42:45.862Z,101133.84
2018-11-06T16:47:29.892Z,101136.69
2018-11-06T16:52:12.888Z,101138.56
2018-11-06T16:56:56.856Z,101141.69
2018-11-06T17:01:39.809Z,101137.64
2018-11-06T17:06:29.191Z,101140.28
2018-11-06T17:11:12.150Z,101141.88
2018-11-06T17:15:55.269Z,101135.70
2018-11-06T17:20:38.189Z,101129.67
2018-11-06T17:25:21.999Z,101127.91
2018-11-06T17:30:06.603Z,101119.55
2018-11-06T17:34:49.811Z,101125.73
2018-11-06T17:39:32.874Z,101129.45
2018-11-06T17:44:15.892Z,101137.21
2018-11-06T17:48:59.027Z,101139.70
2018-11-06T17:53:41.971Z,101140.47
2018-11-06T17:58:26.068Z,101145.92
2018-11-06T18:03:09.024Z,101154.58
2018-11-06T18:07:52.430Z,101158.66
2018-11-06T18:12:35.643Z,101162.53
2018-11-06T18:17:18.585Z,101166.68
2018-11-06T18:22:01.803Z,101160.78
2018-11-06T18:26:44.966Z,101164.58
2018-11-06T18:31:28.006Z,101169.01
2018-11-06T18:36:11.523Z,101163.84
2018-11-06T18:40:54.483Z,101157.52
2018-11-06T18:45:38.357Z,101153.62
2018-11-06T18:50:21.537Z,101156.25
2018-11-06T18:55:04.927Z,101150.56
2018-11-06T18:59:47.960Z,101149.98
2018-11-06T19:04:31.009Z,101152.37
2018-11-06T19:09:13.938Z,101148.31
2018-11-06T19:13:56.848Z,101151.04
2018-11-06T19:18:40.138Z,101144.54
2018-11-06T19:23:24.606Z,101148.08
2018-11-06T19:28:08.450Z,101146.83
2018-11-06T19:32:51.405Z,101144.48
2018-11-06T19:37:34.571Z,101145.03
2018-11-06T19:42:17.575Z,101140.39
2018-11-06T19:47:02.655Z,101142.69
2018-11-06T19:51:45.585Z,101139.85
2018-11-06T19:56:28.728Z,101140.58
2018-11-06T20:01:11.673Z,101141.66
2018-11-06T20:05:57.712Z,101129.44
2018-11-06T20:10:40.960Z,101126.61
2018-11-06T20:15:24.100Z,101129.59
2018-11-06T20:20:09.896Z,101128.19
2018-11-06T20:24:54.332Z,101130.08
2018-11-06T20:35:17.446Z,101129.11
2018-11-06T20:40:07.599Z,101123.30
2018-11-06T20:44:57.848Z,101123.70
2018-11-06T20:49:46.792Z,101133.51
2018-11-06T20:54:33.025Z,101131.75
2018-11-06T21:09:37.635Z,101131.70
2018-11-06T21:14:45.483Z,101129.45
2018-11-06T21:19:30.000Z,101131.27
2018-11-06T21:24:13.924Z,101140.30
2018-11-06T21:28:57.288Z,101137.95
2018-11-06T21:33:40.209Z,101134.82
2018-11-06T21:38:24.624Z,101133.17
2018-11-06T21:43:07.581Z,101137.90
2018-11-06T21:48:00.711Z,101132.37
2018-11-06T21:52:54.850Z,101134.17
2018-11-06T21:57:41.340Z,101136.59
2018-11-06T22:02:29.471Z,101132.19
2018-11-06T22:07:14.473Z,101131.45
2018-11-06T22:11:57.768Z,101134.20
2018-11-06T22:16:41.105Z,101133.90
2018-11-06T22:21:26.057Z,101132.63
2018-11-06T22:26:16.035Z,101127.94
2018-11-06T22:31:15.918Z,101126.34
2018-11-06T22:36:15.488Z,101125.98
2018-11-06T22:41:11.320Z,101129.20
2018-11-06T22:46:16.614Z,101130.14
2018-11-06T22:55:58.908Z,101132.98
2018-11-06T23:00:47.634Z,101133.95
2018-11-06T23:05:34.089Z,101133.20
2018-11-06T23:10:27.194Z,101135.76
2018-11-06T23:15:12.794Z,101137.02
2018-11-06T23:20:04.679Z,101140.49
2018-11-06T23:25:12.678Z,101141.08
2018-11-06T23:30:13.178Z,101143.56
